Windermere, Florida
Current Conditions -  °F | °C
As of 9:53 PM on Sunday 23 Nov 2014 (Local Time) from KORL Reporting Station
Scattered Clouds Scattered Clouds  
Wind Chill: 75°   Ceiling: Unl
Heat Index: 75°   Visibility: 10mi
Dew Point: 72°   Wind: 8mph
Humidity: 90%   Direction: 170°S
Pressure: 29.95"   Gusts: NA
Location:  28.5°N, 81.53°W
Report Text: KORL 240253Z 17007KT 10SM SCT044 24/22 A2995 RMK AO2 SLP143 60000 T02390222 51010
Loading
Personal Weather Stations






























Interactive Weather Map New forecast layout! Learn more

10-Day Weather Forecast

Advertisements
Track Severe Weather on mobile